createdAt,value
2019-03-04T00:00:56.624Z,7.74
2019-03-04T00:01:56.860Z,7.75
2019-03-04T00:02:56.842Z,7.75
2019-03-04T00:03:56.877Z,7.71
2019-03-04T00:04:56.811Z,7.59
2019-03-04T00:05:56.810Z,7.67
2019-03-04T00:06:56.808Z,7.67
2019-03-04T00:07:56.777Z,7.7
2019-03-04T00:08:56.764Z,7.74
2019-03-04T00:09:56.504Z,7.86
2019-03-04T00:10:56.734Z,7.8
2019-03-04T00:11:56.723Z,7.78
2019-03-04T00:12:56.466Z,7.88
2019-03-04T00:13:56.699Z,7.86
2019-03-04T00:14:56.684Z,7.93
2019-03-04T00:15:56.674Z,8.03
2019-03-04T00:16:56.662Z,7.96
2019-03-04T00:17:56.643Z,7.96
2019-03-04T00:18:56.387Z,8.03
2019-03-04T00:19:56.371Z,8.06
2019-03-04T00:20:56.605Z,8.01
2019-03-04T00:21:56.600Z,8.03
2019-03-04T00:22:56.580Z,8.1
2019-03-04T00:23:56.570Z,8.01
2019-03-04T00:24:56.607Z,8.04
2019-03-04T00:25:56.669Z,7.98
2019-03-04T00:26:56.282Z,7.96
2019-03-04T00:27:56.511Z,7.95
2019-03-04T00:28:56.257Z,7.89
2019-03-04T00:29:56.489Z,7.86
2019-03-04T00:30:56.501Z,7.82
2019-03-04T00:31:56.218Z,7.96
2019-03-04T00:32:56.446Z,7.93
2019-03-04T00:33:56.439Z,7.96
2019-03-04T00:34:56.419Z,7.96
2019-03-04T00:35:56.417Z,7.99
2019-03-04T00:36:56.146Z,8.06
2019-03-04T00:37:56.380Z,8.06
2019-03-04T00:38:56.373Z,8.09
2019-03-04T00:39:56.354Z,8.13
2019-03-04T00:40:56.347Z,8.14
2019-03-04T00:41:56.329Z,8.14
2019-03-04T00:42:56.324Z,8.11
2019-03-04T00:43:56.305Z,8.16
2019-03-04T00:44:56.299Z,8.19
2019-03-04T00:45:56.285Z,8.22
2019-03-04T00:46:56.267Z,8.13
2019-03-04T00:47:56.047Z,8.24
2019-03-04T00:48:56.239Z,8.21
2019-03-04T00:49:57.022Z,8.13
2019-03-04T00:50:56.218Z,8.17
2019-03-04T00:51:56.232Z,8.17
2019-03-04T00:52:56.187Z,8.09
2019-03-04T00:53:56.174Z,7.99
2019-03-04T00:54:56.162Z,8.04
2019-03-04T00:55:56.149Z,7.91
2019-03-04T00:56:56.135Z,7.83
2019-03-04T00:57:56.126Z,7.83
2019-03-04T00:58:56.114Z,7.78
2019-03-04T00:59:56.094Z,7.85
2019-03-04T01:00:56.087Z,7.75
2019-03-04T01:01:56.079Z,7.74
2019-03-04T01:02:56.121Z,7.75
2019-03-04T01:03:56.044Z,7.73
2019-03-04T01:04:56.031Z,7.71
2019-03-04T01:05:56.017Z,7.73
2019-03-04T01:06:56.013Z,7.75
2019-03-04T01:07:55.744Z,7.8
2019-03-04T01:08:55.978Z,7.8
2019-03-04T01:09:55.987Z,7.63
2019-03-04T01:10:55.959Z,7.59
2019-03-04T01:11:55.944Z,7.59
2019-03-04T01:12:55.928Z,7.58
2019-03-04T01:13:55.665Z,7.68
2019-03-04T01:14:55.904Z,7.59
2019-03-04T01:15:55.894Z,7.63
2019-03-04T01:16:55.933Z,7.63
2019-03-04T01:17:55.861Z,7.59
2019-03-04T01:18:55.846Z,7.56
2019-03-04T01:19:55.842Z,7.59
2019-03-04T01:20:55.581Z,7.56
2019-03-04T01:21:55.819Z,7.52
2019-03-04T01:22:55.549Z,7.52
2019-03-04T01:23:56.374Z,7.52
2019-03-04T01:24:55.522Z,7.55
2019-03-04T01:25:55.755Z,7.51
2019-03-04T01:26:55.747Z,7.54
2019-03-04T01:27:55.488Z,7.54
2019-03-04T01:28:55.717Z,7.49
2019-03-04T01:29:55.724Z,7.59
2019-03-04T01:30:55.687Z,7.51
2019-03-04T01:31:55.677Z,7.52
2019-03-04T01:32:55.672Z,7.48
2019-03-04T01:33:55.412Z,7.54
2019-03-04T01:34:55.392Z,7.48
2019-03-04T01:35:55.645Z,7.56
2019-03-04T01:36:55.371Z,7.54
2019-03-04T01:37:55.361Z,7.48
2019-03-04T01:38:55.592Z,7.55
2019-03-04T01:39:55.568Z,7.58
2019-03-04T01:40:55.553Z,7.45
2019-03-04T01:41:55.297Z,7.47
2019-03-04T01:42:55.531Z,7.37
2019-03-04T01:43:55.516Z,7.49
2019-03-04T01:44:55.509Z,7.37
2019-03-04T01:45:55.492Z,7.37
2019-03-04T01:46:55.480Z,7.39
2019-03-04T01:47:55.460Z,7.44
2019-03-04T01:48:55.446Z,7.37
2019-03-04T01:49:55.438Z,7.37
2019-03-04T01:50:55.441Z,7.37
2019-03-04T01:51:55.418Z,7.4
2019-03-04T01:52:55.403Z,7.47
2019-03-04T01:53:55.383Z,7.36
2019-03-04T01:54:55.121Z,7.37
2019-03-04T01:55:55.360Z,7.51
2019-03-04T01:56:55.338Z,7.52
2019-03-04T01:57:55.326Z,7.47
2019-03-04T01:58:55.313Z,7.45
2019-03-04T01:59:55.299Z,7.45
2019-03-04T02:00:55.292Z,7.49
2019-03-04T02:01:55.294Z,7.45
2019-03-04T02:02:55.260Z,7.45
2019-03-04T02:03:55.252Z,7.55
2019-03-04T02:04:55.294Z,7.59
2019-03-04T02:05:55.223Z,7.67
2019-03-04T02:06:55.216Z,7.67
2019-03-04T02:07:55.203Z,7.7
2019-03-04T02:08:55.186Z,7.7
2019-03-04T02:09:55.170Z,7.74
2019-03-04T02:10:55.159Z,7.64
2019-03-04T02:11:55.157Z,7.67
2019-03-04T02:12:55.134Z,7.73
2019-03-04T02:13:56.206Z,7.75
2019-03-04T02:14:55.102Z,7.75
2019-03-04T02:15:55.093Z,7.78
2019-03-04T02:16:55.083Z,7.78
2019-03-04T02:17:55.070Z,7.8
2019-03-04T02:18:55.052Z,7.77
2019-03-04T02:19:55.038Z,7.74
2019-03-04T02:20:55.027Z,7.78
2019-03-04T02:21:55.020Z,7.78
2019-03-04T02:22:55.027Z,7.82
2019-03-04T02:23:54.978Z,7.77
2019-03-04T02:24:54.719Z,7.8
2019-03-04T02:25:54.472Z,7.82
2019-03-04T02:26:54.948Z,7.83
2019-03-04T02:27:54.684Z,7.74
2019-03-04T02:28:54.921Z,7.74
2019-03-04T02:29:54.904Z,7.64
2019-03-04T02:30:54.904Z,7.73
2019-03-04T02:31:54.887Z,7.63
2019-03-04T02:32:54.888Z,7.73
2019-03-04T02:33:54.860Z,7.63
2019-03-04T02:34:54.878Z,7.73
2019-03-04T02:35:54.596Z,7.73
2019-03-04T02:36:54.830Z,7.63
2019-03-04T02:37:54.829Z,7.7
2019-03-04T02:38:54.796Z,7.7
2019-03-04T02:39:54.775Z,7.8
2019-03-04T02:40:54.769Z,7.82
2019-03-04T02:41:54.760Z,7.83
2019-03-04T02:42:54.737Z,7.85
2019-03-04T02:43:54.734Z,7.82
2019-03-04T02:44:54.714Z,7.8
2019-03-04T02:45:54.722Z,7.78
2019-03-04T02:46:54.683Z,7.8
2019-03-04T02:47:54.682Z,7.74
2019-03-04T02:48:54.674Z,7.75
2019-03-04T02:49:54.406Z,7.78
2019-03-04T02:50:54.631Z,7.74
2019-03-04T02:51:54.631Z,7.77
2019-03-04T02:52:54.609Z,7.82
2019-03-04T02:53:54.589Z,7.75
2019-03-04T02:54:54.597Z,7.78
2019-03-04T02:55:54.582Z,7.78
2019-03-04T02:56:54.319Z,7.82
2019-03-04T02:57:54.536Z,7.77
2019-03-04T02:58:54.530Z,7.77
2019-03-04T02:59:54.264Z,7.75
2019-03-04T03:00:54.264Z,7.75
2019-03-04T03:01:54.486Z,7.73
2019-03-04T03:02:54.485Z,7.73
2019-03-04T03:03:54.461Z,7.61
2019-03-04T03:04:54.215Z,7.64
2019-03-04T03:05:54.447Z,7.67
2019-03-04T03:06:54.420Z,7.54
2019-03-04T03:07:54.405Z,7.48
2019-03-04T03:08:54.396Z,7.44
2019-03-04T03:09:54.384Z,7.41
2019-03-04T03:10:54.379Z,7.4
2019-03-04T03:11:54.353Z,7.54
2019-03-04T03:12:54.375Z,7.55
2019-03-04T03:13:54.327Z,7.52
2019-03-04T03:14:54.323Z,7.56
2019-03-04T03:15:54.313Z,7.63
2019-03-04T03:16:54.318Z,7.73
2019-03-04T03:17:54.280Z,7.71
2019-03-04T03:18:54.309Z,7.74
2019-03-04T03:19:54.256Z,7.74
2019-03-04T03:20:54.251Z,7.77
2019-03-04T03:21:53.977Z,7.8
2019-03-04T03:22:54.209Z,7.77
2019-03-04T03:23:53.955Z,7.77
2019-03-04T03:24:54.186Z,7.82
2019-03-04T03:25:54.180Z,7.93
2019-03-04T03:26:54.176Z,7.82
2019-03-04T03:27:54.165Z,7.83
2019-03-04T03:28:54.145Z,7.93
2019-03-04T03:29:56.834Z,7.93
2019-03-04T03:30:54.157Z,7.95
2019-03-04T03:31:54.120Z,7.78
2019-03-04T03:32:54.209Z,7.78
2019-03-04T03:33:53.843Z,7.74
2019-03-04T03:34:53.815Z,7.78
2019-03-04T03:35:54.038Z,7.74
2019-03-04T03:36:54.089Z,7.77
2019-03-04T03:37:54.014Z,7.85
2019-03-04T03:38:54.003Z,7.78
2019-03-04T03:39:54.000Z,7.86
2019-03-04T03:40:53.987Z,7.82
2019-03-04T03:41:53.962Z,7.8
2019-03-04T03:42:53.727Z,7.83
2019-03-04T03:43:53.934Z,7.88
2019-03-04T03:44:53.698Z,7.93
2019-03-04T03:45:53.910Z,8.04
2019-03-04T03:46:53.909Z,8.01
2019-03-04T03:47:53.885Z,8.09
2019-03-04T03:48:53.887Z,7.96
2019-03-04T03:49:53.860Z,8.03
2019-03-04T03:50:53.866Z,8.01
2019-03-04T03:51:53.829Z,8.11
2019-03-04T03:52:53.845Z,8.1
2019-03-04T03:53:53.556Z,8.1
2019-03-04T03:54:53.800Z,7.96
2019-03-04T03:55:53.543Z,7.99
2019-03-04T03:56:53.769Z,7.95
2019-03-04T03:57:53.750Z,7.91
2019-03-04T03:58:53.744Z,7.95
2019-03-04T03:59:53.497Z,7.85
2019-03-04T04:00:53.469Z,7.88
2019-03-04T04:01:53.451Z,7.78
2019-03-04T04:02:53.708Z,7.8
2019-03-04T04:03:53.700Z,7.85
2019-03-04T04:04:53.660Z,7.82
2019-03-04T04:05:53.433Z,7.83
2019-03-04T04:06:53.656Z,7.82
2019-03-04T04:07:53.629Z,7.82
2019-03-04T04:08:53.618Z,7.85
2019-03-04T04:09:53.591Z,7.85
2019-03-04T04:10:53.633Z,7.92
2019-03-04T04:11:53.568Z,7.95
2019-03-04T04:12:53.558Z,7.92
2019-03-04T04:13:53.547Z,7.98
2019-03-04T04:14:53.532Z,7.98
2019-03-04T04:15:53.515Z,7.99
2019-03-04T04:16:53.259Z,7.99
2019-03-04T04:17:53.503Z,8.09
2019-03-04T04:18:53.481Z,8.1
2019-03-04T04:19:55.553Z,8.16
2019-03-04T04:20:53.456Z,8.17
2019-03-04T04:21:53.439Z,8.22
2019-03-04T04:22:53.439Z,8.31
2019-03-04T04:23:53.411Z,8.21
2019-03-04T04:24:53.393Z,8.31
2019-03-04T04:25:53.395Z,8.28
2019-03-04T04:26:53.130Z,8.29
2019-03-04T04:27:53.368Z,8.29
2019-03-04T04:28:53.347Z,8.34
2019-03-04T04:29:53.334Z,8.42
2019-03-04T04:30:53.324Z,8.47
2019-03-04T04:31:53.064Z,8.46
2019-03-04T04:32:53.342Z,8.44
2019-03-04T04:33:53.294Z,8.47
2019-03-04T04:34:53.317Z,8.46
2019-03-04T04:35:53.262Z,8.52
2019-03-04T04:36:52.997Z,8.47
2019-03-04T04:37:53.242Z,8.57
2019-03-04T04:38:52.978Z,8.57
2019-03-04T04:39:53.212Z,8.61
2019-03-04T04:40:53.196Z,8.49
2019-03-04T04:41:52.933Z,8.58
2019-03-04T04:42:53.167Z,8.68
2019-03-04T04:43:52.909Z,8.58
2019-03-04T04:44:52.649Z,8.65
2019-03-04T04:45:53.141Z,8.62
2019-03-04T04:46:53.123Z,8.69
2019-03-04T04:47:53.105Z,8.68
2019-03-04T04:48:53.089Z,8.69
2019-03-04T04:49:53.080Z,8.77
2019-03-04T04:50:53.065Z,8.71
2019-03-04T04:51:52.810Z,8.67
2019-03-04T04:52:53.043Z,8.76
2019-03-04T04:53:53.027Z,8.69
2019-03-04T04:54:52.772Z,8.64
2019-03-04T04:55:53.003Z,8.72
2019-03-04T04:56:52.746Z,8.74
2019-03-04T04:57:52.979Z,8.72
2019-03-04T04:58:52.970Z,8.64
2019-03-04T04:59:52.957Z,8.61
2019-03-04T05:00:52.954Z,8.61
2019-03-04T05:01:52.930Z,8.64
2019-03-04T05:02:52.667Z,8.68
2019-03-04T05:03:52.655Z,8.77
2019-03-04T05:04:52.894Z,8.72
2019-03-04T05:05:52.880Z,8.76
2019-03-04T05:06:52.873Z,8.72
2019-03-04T05:07:52.864Z,8.74
2019-03-04T05:08:52.841Z,8.77
2019-03-04T05:09:52.831Z,8.68
2019-03-04T05:10:52.816Z,8.76
2019-03-04T05:11:52.806Z,8.79
2019-03-04T05:12:52.795Z,8.71
2019-03-04T05:13:52.785Z,8.72
2019-03-04T05:14:52.813Z,8.76
2019-03-04T05:15:52.753Z,8.77
2019-03-04T05:16:52.736Z,8.74
2019-03-04T05:17:52.728Z,8.72
2019-03-04T05:18:52.717Z,8.76
2019-03-04T05:19:52.704Z,8.77
2019-03-04T05:20:52.688Z,8.72
2019-03-04T05:21:52.684Z,8.76
2019-03-04T05:22:52.678Z,8.77
2019-03-04T05:23:52.653Z,8.74
2019-03-04T05:24:52.643Z,8.62
2019-03-04T05:25:52.632Z,8.72
2019-03-04T05:26:52.370Z,8.74
2019-03-04T05:27:52.362Z,8.76
2019-03-04T05:28:52.587Z,8.74
2019-03-04T05:29:52.337Z,8.62
2019-03-04T05:30:52.563Z,8.67
2019-03-04T05:31:52.573Z,8.65
2019-03-04T05:32:52.549Z,8.69
2019-03-04T05:33:52.287Z,8.65
2019-03-04T05:34:52.512Z,8.69
2019-03-04T05:35:52.509Z,8.62
2019-03-04T05:36:52.489Z,8.54
2019-03-04T05:37:52.478Z,8.61
2019-03-04T05:38:52.470Z,8.6
2019-03-04T05:39:52.454Z,8.68
2019-03-04T05:40:52.450Z,8.62
2019-03-04T05:41:52.434Z,8.69
2019-03-04T05:42:52.170Z,8.71
2019-03-04T05:43:52.154Z,8.8
2019-03-04T05:44:52.143Z,8.77
2019-03-04T05:45:52.129Z,8.77
2019-03-04T05:46:52.367Z,8.8
2019-03-04T05:47:52.359Z,8.89
2019-03-04T05:48:52.336Z,8.8
2019-03-04T05:49:52.332Z,8.87
2019-03-04T05:50:52.316Z,8.85
2019-03-04T05:51:52.053Z,8.87
2019-03-04T05:52:52.292Z,8.89
2019-03-04T05:53:52.286Z,8.82
2019-03-04T05:54:52.272Z,8.8
2019-03-04T05:55:52.258Z,8.8
2019-03-04T05:56:51.998Z,8.8
2019-03-04T05:57:51.988Z,8.8
2019-03-04T05:58:51.971Z,8.85
2019-03-04T05:59:52.204Z,8.87
2019-03-04T06:00:52.192Z,8.87
2019-03-04T06:01:52.177Z,8.85
2019-03-04T06:02:51.923Z,8.9
2019-03-04T06:03:53.740Z,8.82
2019-03-04T06:04:52.141Z,8.9
2019-03-04T06:05:52.139Z,8.89
2019-03-04T06:06:52.119Z,8.9
2019-03-04T06:07:52.111Z,8.94
2019-03-04T06:08:52.095Z,8.94
2019-03-04T06:09:52.088Z,8.98
2019-03-04T06:10:52.062Z,8.97
2019-03-04T06:11:52.050Z,8.95
2019-03-04T06:12:52.044Z,9.04
2019-03-04T06:13:51.802Z,9
2019-03-04T06:14:52.017Z,9.03
2019-03-04T06:15:51.759Z,8.98
2019-03-04T06:16:52.490Z,9.03
2019-03-04T06:17:51.733Z,8.97
2019-03-04T06:18:51.973Z,8.98
2019-03-04T06:19:51.956Z,9.03
2019-03-04T06:20:51.948Z,9.09
2019-03-04T06:21:51.688Z,9.05
2019-03-04T06:22:51.921Z,9.09
2019-03-04T06:23:51.904Z,9.03
2019-03-04T06:24:51.659Z,9.12
2019-03-04T06:25:51.894Z,9.2
2019-03-04T06:26:51.875Z,9.23
2019-03-04T06:27:51.897Z,9.32
2019-03-04T06:28:51.658Z,9.34
2019-03-04T06:29:52.135Z,9.3
2019-03-04T06:30:53.794Z,9.37
2019-03-04T06:31:51.811Z,9.45
2019-03-04T06:32:51.798Z,9.52
2019-03-04T06:33:51.540Z,9.53
2019-03-04T06:34:51.777Z,9.57
2019-03-04T06:35:51.769Z,9.62
2019-03-04T06:36:53.077Z,9.67
2019-03-04T06:37:51.739Z,9.7
2019-03-04T06:38:51.482Z,9.72
2019-03-04T06:39:51.715Z,9.75
2019-03-04T06:40:51.704Z,9.75
2019-03-04T06:41:51.695Z,9.74
2019-03-04T06:42:51.684Z,9.82
2019-03-04T06:43:51.424Z,9.74
2019-03-04T06:44:51.658Z,9.77
2019-03-04T06:45:51.409Z,9.78
2019-03-04T06:46:51.421Z,9.78
2019-03-04T06:47:51.626Z,9.74
2019-03-04T06:48:51.609Z,9.71
2019-03-04T06:49:51.608Z,9.74
2019-03-04T06:50:51.359Z,9.72
2019-03-04T06:51:51.328Z,9.75
2019-03-04T06:52:51.610Z,9.74
2019-03-04T06:53:51.304Z,9.81
2019-03-04T06:54:51.552Z,9.81
2019-03-04T06:55:51.538Z,9.88
2019-03-04T06:56:51.520Z,9.85
2019-03-04T06:57:51.508Z,9.95
2019-03-04T06:58:51.502Z,9.9
2019-03-04T06:59:51.481Z,9.84
2019-03-04T07:00:51.224Z,9.96
2019-03-04T07:01:51.467Z,9.96
2019-03-04T07:02:51.461Z,9.92
2019-03-04T07:03:51.437Z,9.95
2019-03-04T07:04:51.433Z,10
2019-03-04T07:05:51.417Z,9.99
2019-03-04T07:06:51.408Z,9.95
2019-03-04T07:07:51.392Z,10
2019-03-04T07:08:51.140Z,10.05
2019-03-04T07:09:51.369Z,10.05
2019-03-04T07:10:51.117Z,10.03
2019-03-04T07:11:51.404Z,10
2019-03-04T07:12:51.341Z,9.92
2019-03-04T07:13:51.328Z,10
2019-03-04T07:14:51.319Z,9.96
2019-03-04T07:15:51.306Z,10
2019-03-04T07:16:51.340Z,10.1
2019-03-04T07:17:51.283Z,10.02
2019-03-04T07:18:51.272Z,10.11
2019-03-04T07:19:51.265Z,10.17
2019-03-04T07:20:51.247Z,10.18
2019-03-04T07:21:51.239Z,10.29
2019-03-04T07:22:53.303Z,10.25
2019-03-04T07:23:51.223Z,10.29
2019-03-04T07:24:50.969Z,10.38
2019-03-04T07:25:51.196Z,10.39
2019-03-04T07:26:51.182Z,10.54
2019-03-04T07:27:50.928Z,10.55
2019-03-04T07:28:51.166Z,10.69
2019-03-04T07:29:50.910Z,10.72
2019-03-04T07:30:51.143Z,10.66
2019-03-04T07:31:51.130Z,10.72
2019-03-04T07:32:51.121Z,10.72
2019-03-04T07:33:51.112Z,10.77
2019-03-04T07:34:51.097Z,10.83
2019-03-04T07:35:51.086Z,10.83
2019-03-04T07:36:51.078Z,10.94
2019-03-04T07:37:51.069Z,10.97
2019-03-04T07:38:51.058Z,10.88
2019-03-04T07:39:51.041Z,10.9
2019-03-04T07:40:50.790Z,10.95
2019-03-04T07:41:51.040Z,11.06
2019-03-04T07:42:51.015Z,11.02
2019-03-04T07:43:50.755Z,11.12
2019-03-04T07:44:50.996Z,11.13
2019-03-04T07:45:50.992Z,11.18
2019-03-04T07:46:50.726Z,11.2
2019-03-04T07:47:50.962Z,11.27
2019-03-04T07:48:50.950Z,11.27
2019-03-04T07:49:50.944Z,11.34
2019-03-04T07:50:50.930Z,11.38
2019-03-04T07:51:50.671Z,11.46
2019-03-04T07:52:50.910Z,11.41
2019-03-04T07:53:51.697Z,11.48
2019-03-04T07:54:50.894Z,11.42
2019-03-04T07:55:50.910Z,11.48
2019-03-04T07:56:50.879Z,11.46
2019-03-04T07:57:50.630Z,11.52
2019-03-04T07:58:50.857Z,11.43
2019-03-04T07:59:50.841Z,11.39
2019-03-04T08:00:50.846Z,11.35
2019-03-04T08:01:50.582Z,11.3
2019-03-04T08:02:50.818Z,11.27
2019-03-04T08:03:50.803Z,11.09
2019-03-04T08:04:50.790Z,11.15
2019-03-04T08:05:50.783Z,11.09
2019-03-04T08:06:50.876Z,11.08
2019-03-04T08:07:50.524Z,11
2019-03-04T08:08:50.750Z,11.03
2019-03-04T08:09:50.492Z,10.95
2019-03-04T08:10:50.736Z,10.95
2019-03-04T08:11:50.723Z,10.83
2019-03-04T08:12:50.712Z,10.84
2019-03-04T08:13:50.707Z,10.72
2019-03-04T08:14:50.447Z,10.66
2019-03-04T08:15:50.443Z,10.65
2019-03-04T08:16:50.687Z,10.63
2019-03-04T08:17:50.663Z,10.54
2019-03-04T08:18:50.659Z,10.51
2019-03-04T08:19:50.649Z,10.49
2019-03-04T08:20:50.634Z,10.49
2019-03-04T08:21:50.620Z,10.57
2019-03-04T08:22:50.613Z,10.54
2019-03-04T08:23:50.609Z,10.59
2019-03-04T08:24:50.598Z,10.69
2019-03-04T08:25:50.579Z,10.67
2019-03-04T08:26:50.573Z,10.77
2019-03-04T08:27:50.567Z,10.77
2019-03-04T08:28:50.546Z,10.95
2019-03-04T08:29:50.538Z,10.91
2019-03-04T08:30:50.532Z,11.03
2019-03-04T08:31:50.522Z,11.1
2019-03-04T08:32:50.513Z,11.13
2019-03-04T08:33:50.254Z,11.15
2019-03-04T08:34:50.488Z,11.2
2019-03-04T08:35:50.478Z,11.3
2019-03-04T08:36:50.478Z,11.35
2019-03-04T08:37:50.219Z,11.48
2019-03-04T08:38:50.454Z,11.63
2019-03-04T08:39:50.437Z,11.63
2019-03-04T08:40:50.450Z,11.86
2019-03-04T08:41:50.176Z,11.94
2019-03-04T08:42:50.424Z,12.07
2019-03-04T08:43:50.404Z,12.16
2019-03-04T08:44:50.146Z,12.2
2019-03-04T08:45:50.382Z,12.25
2019-03-04T08:46:50.123Z,12.22
2019-03-04T08:47:50.364Z,12.28
2019-03-04T08:48:50.108Z,12.33
2019-03-04T08:49:50.340Z,12.37
2019-03-04T08:50:50.332Z,12.34
2019-03-04T08:51:50.322Z,12.26
2019-03-04T08:52:50.328Z,12.33
2019-03-04T08:53:50.307Z,12.43
2019-03-04T08:54:50.305Z,12.41
2019-03-04T08:55:50.247Z,12.41
2019-03-04T08:56:50.280Z,12.43
2019-03-04T08:57:50.267Z,12.41
2019-03-04T08:58:50.266Z,12.4
2019-03-04T08:59:50.010Z,12.44
2019-03-04T09:00:50.309Z,12.44
2019-03-04T09:01:49.986Z,12.41
2019-03-04T09:02:50.226Z,12.4
2019-03-04T09:03:50.217Z,12.4
2019-03-04T09:04:50.203Z,12.31
2019-03-04T09:05:49.950Z,12.2
2019-03-04T09:06:50.223Z,12.11
2019-03-04T09:07:50.177Z,12.04
2019-03-04T09:08:50.165Z,12
2019-03-04T09:09:50.156Z,11.98
2019-03-04T09:10:50.157Z,11.91
2019-03-04T09:11:50.143Z,12.01
2019-03-04T09:12:49.889Z,12
2019-03-04T09:13:50.132Z,12.08
2019-03-04T09:14:50.111Z,12.19
2019-03-04T09:15:50.102Z,12.22
2019-03-04T09:16:50.098Z,12.2
2019-03-04T09:17:50.080Z,12.31
2019-03-04T09:18:50.075Z,12.26
2019-03-04T09:19:50.064Z,12.29
2019-03-04T09:20:50.060Z,12.36
2019-03-04T09:21:50.054Z,12.28
2019-03-04T09:22:50.039Z,12.33
2019-03-04T09:23:52.414Z,12.34
2019-03-04T09:24:49.786Z,12.29
2019-03-04T09:25:50.017Z,12.28
2019-03-04T09:26:50.010Z,12.36
2019-03-04T09:27:50.047Z,12.34
2019-03-04T09:28:49.985Z,12.33
2019-03-04T09:29:51.553Z,12.34
2019-03-04T09:30:49.976Z,12.36
2019-03-04T09:31:49.958Z,12.29
2019-03-04T09:32:49.953Z,12.38
2019-03-04T09:33:49.945Z,12.43
2019-03-04T09:34:49.939Z,12.38
2019-03-04T09:35:49.922Z,12.38
2019-03-04T09:36:49.954Z,12.29
2019-03-04T09:37:49.951Z,12.28
2019-03-04T09:38:49.897Z,12.2
2019-03-04T09:39:49.893Z,12.26
2019-03-04T09:40:49.881Z,12.34
2019-03-04T09:41:49.868Z,12.25
2019-03-04T09:42:49.367Z,12.28
2019-03-04T09:43:49.850Z,12.38
2019-03-04T09:44:49.841Z,12.38
2019-03-04T09:45:49.835Z,12.23
2019-03-04T09:46:49.821Z,12.2
2019-03-04T09:47:49.812Z,12.19
2019-03-04T09:48:49.801Z,12.22
2019-03-04T09:49:49.800Z,12.22
2019-03-04T09:50:49.787Z,12.15
2019-03-04T09:51:49.535Z,12.16
2019-03-04T09:52:49.768Z,12.16
2019-03-04T09:53:49.762Z,12.1
2019-03-04T09:54:49.748Z,11.98
2019-03-04T09:55:49.747Z,11.95
2019-03-04T09:56:49.734Z,11.89
2019-03-04T09:57:49.785Z,11.76
2019-03-04T09:58:49.774Z,11.73
2019-03-04T09:59:51.837Z,11.67
2019-03-04T10:00:49.705Z,11.71
2019-03-04T10:01:49.437Z,11.75
2019-03-04T10:02:49.678Z,11.61
2019-03-04T10:03:49.667Z,11.56
2019-03-04T10:04:49.655Z,11.41
2019-03-04T10:05:49.403Z,11.48
2019-03-04T10:06:49.635Z,11.42
2019-03-04T10:07:49.635Z,11.41
2019-03-04T10:08:49.375Z,11.34
2019-03-04T10:09:49.610Z,11.34
2019-03-04T10:10:49.600Z,11.33
2019-03-04T10:11:49.597Z,11.39
2019-03-04T10:12:49.582Z,11.41
2019-03-04T10:13:49.376Z,11.41
2019-03-04T10:14:49.314Z,11.43
2019-03-04T10:15:49.553Z,11.33
2019-03-04T10:16:49.539Z,11.35
2019-03-04T10:17:49.543Z,11.27
2019-03-04T10:18:49.519Z,11.34
2019-03-04T10:19:49.517Z,11.31
2019-03-04T10:20:49.501Z,11.3
2019-03-04T10:21:50.074Z,11.3
2019-03-04T10:22:49.479Z,11.1
2019-03-04T10:23:49.471Z,11.12
2019-03-04T10:24:49.459Z,11.13
2019-03-04T10:25:49.456Z,11.12
2019-03-04T10:26:48.958Z,11.02
2019-03-04T10:27:49.433Z,11.06
2019-03-04T10:28:49.424Z,11.03
2019-03-04T10:29:49.416Z,11.02
2019-03-04T10:30:49.406Z,11.15
2019-03-04T10:31:49.147Z,11.05
2019-03-04T10:32:49.135Z,11.12
2019-03-04T10:33:49.370Z,11.15
2019-03-04T10:34:49.363Z,11.12
2019-03-04T10:35:49.359Z,11.13
2019-03-04T10:36:49.341Z,11.15
2019-03-04T10:37:49.352Z,11.2
2019-03-04T10:38:49.326Z,11.24
2019-03-04T10:39:49.067Z,11.3
2019-03-04T10:40:49.304Z,11.21
2019-03-04T10:41:49.289Z,11.24
2019-03-04T10:42:49.282Z,11.34
2019-03-04T10:43:49.273Z,11.26
2019-03-04T10:44:49.261Z,11.33
2019-03-04T10:45:49.252Z,11.31
2019-03-04T10:46:48.997Z,11.2
2019-03-04T10:47:49.233Z,11.15
2019-03-04T10:48:49.221Z,11.12
2019-03-04T10:49:49.218Z,11.12
2019-03-04T10:50:49.217Z,11.08
2019-03-04T10:51:49.193Z,11.02
2019-03-04T10:52:49.184Z,11
2019-03-04T10:53:48.927Z,11.03
2019-03-04T10:54:48.917Z,10.98
2019-03-04T10:55:49.156Z,10.95
2019-03-04T10:56:49.153Z,11.03
2019-03-04T10:57:49.134Z,11.03
2019-03-04T10:58:48.876Z,11.15
2019-03-04T10:59:48.863Z,11.2
2019-03-04T11:00:49.106Z,11.05
2019-03-04T11:01:50.056Z,11.1
2019-03-04T11:02:49.083Z,11.16
2019-03-04T11:03:49.068Z,11.27
2019-03-04T11:04:49.067Z,11.27
2019-03-04T11:05:49.052Z,11.42
2019-03-04T11:06:49.038Z,11.48
2019-03-04T11:07:49.029Z,11.56
2019-03-04T11:08:49.019Z,11.6
2019-03-04T11:09:48.527Z,11.66
2019-03-04T11:10:49.002Z,11.6
2019-03-04T11:11:48.996Z,11.66
2019-03-04T11:12:48.977Z,11.66
2019-03-04T11:13:48.973Z,11.6
2019-03-04T11:14:48.977Z,11.61
2019-03-04T11:15:48.959Z,11.61
2019-03-04T11:16:48.937Z,11.57
2019-03-04T11:17:48.931Z,11.52
2019-03-04T11:18:48.922Z,11.6
2019-03-04T11:19:48.918Z,11.53
2019-03-04T11:20:48.898Z,11.61
2019-03-04T11:21:48.901Z,11.61
2019-03-04T11:22:48.888Z,11.64
2019-03-04T11:23:48.868Z,11.59
2019-03-04T11:24:48.858Z,11.57
2019-03-04T11:25:48.609Z,11.57
2019-03-04T11:26:48.848Z,11.61
2019-03-04T11:27:48.834Z,11.46
2019-03-04T11:28:48.832Z,11.39
2019-03-04T11:29:48.813Z,11.31
2019-03-04T11:30:48.803Z,11.3
2019-03-04T11:31:48.788Z,11.33
2019-03-04T11:32:48.788Z,11.24
2019-03-04T11:33:48.776Z,11.21
2019-03-04T11:34:48.764Z,11.23
2019-03-04T11:35:48.505Z,11.35
2019-03-04T11:36:48.504Z,11.33
2019-03-04T11:37:48.486Z,11.41
2019-03-04T11:38:48.722Z,11.43
2019-03-04T11:39:48.712Z,11.46
2019-03-04T11:40:48.701Z,11.52
2019-03-04T11:41:48.695Z,11.6
2019-03-04T11:42:50.503Z,11.56
2019-03-04T11:43:48.671Z,11.49
2019-03-04T11:44:48.673Z,11.45
2019-03-04T11:45:48.654Z,11.34
2019-03-04T11:46:48.404Z,11.33
2019-03-04T11:47:48.632Z,11.41
2019-03-04T11:48:48.625Z,11.43
2019-03-04T11:49:48.616Z,11.48
2019-03-04T11:50:48.607Z,11.48
2019-03-04T11:51:48.595Z,11.53
2019-03-04T11:52:48.594Z,11.61
2019-03-04T11:53:48.574Z,11.75
2019-03-04T11:54:48.638Z,11.75
2019-03-04T11:55:48.558Z,11.79
2019-03-04T11:56:48.550Z,11.91
2019-03-04T11:57:48.539Z,11.86
2019-03-04T11:58:48.287Z,11.82
2019-03-04T11:59:48.583Z,11.78
2019-03-04T12:00:48.511Z,11.79
2019-03-04T12:01:48.500Z,11.79
2019-03-04T12:02:48.496Z,11.76
2019-03-04T12:03:48.490Z,11.73
2019-03-04T12:04:48.469Z,11.75
2019-03-04T12:05:48.247Z,11.71
2019-03-04T12:06:48.706Z,11.67
2019-03-04T12:07:48.460Z,11.68
2019-03-04T12:08:48.443Z,11.86
2019-03-04T12:09:48.427Z,11.84
2019-03-04T12:10:48.415Z,11.81
2019-03-04T12:11:48.158Z,11.78
2019-03-04T12:12:48.401Z,11.82
2019-03-04T12:13:48.390Z,11.73
2019-03-04T12:14:48.382Z,11.66
2019-03-04T12:15:48.368Z,11.66
2019-03-04T12:16:48.116Z,11.66
2019-03-04T12:17:48.355Z,11.64
2019-03-04T12:18:48.339Z,11.76
2019-03-04T12:19:48.086Z,11.71
2019-03-04T12:20:48.319Z,11.7
2019-03-04T12:21:48.312Z,11.81
2019-03-04T12:22:48.298Z,11.85
2019-03-04T12:23:48.340Z,11.84
2019-03-04T12:24:48.037Z,11.91
2019-03-04T12:25:48.275Z,11.85
2019-03-04T12:26:48.273Z,11.81
2019-03-04T12:27:48.254Z,11.89
2019-03-04T12:28:48.240Z,12.03
2019-03-04T12:29:48.234Z,12.03
2019-03-04T12:30:48.238Z,11.86
2019-03-04T12:31:48.223Z,11.85
2019-03-04T12:32:47.712Z,11.67
2019-03-04T12:33:47.954Z,11.75
2019-03-04T12:34:48.192Z,11.68
2019-03-04T12:35:48.189Z,11.66
2019-03-04T12:36:50.204Z,11.52
2019-03-04T12:37:48.163Z,11.51
2019-03-04T12:38:48.158Z,11.34
2019-03-04T12:39:48.147Z,11.3
2019-03-04T12:40:48.133Z,11.35
2019-03-04T12:41:49.723Z,11.26
2019-03-04T12:42:48.119Z,11.15
2019-03-04T12:43:48.110Z,11.18
2019-03-04T12:44:48.097Z,11.13
2019-03-04T12:45:48.092Z,11.13
2019-03-04T12:46:48.074Z,11.13
2019-03-04T12:47:48.064Z,11.12
2019-03-04T12:48:48.062Z,11.1
2019-03-04T12:49:48.047Z,11.12
2019-03-04T12:50:48.039Z,11.18
2019-03-04T12:51:48.027Z,11.23
2019-03-04T12:52:48.026Z,11.33
2019-03-04T12:53:48.006Z,11.28
2019-03-04T12:54:48.000Z,11.3
2019-03-04T12:55:47.987Z,11.31
2019-03-04T12:56:47.734Z,11.31
2019-03-04T12:57:47.986Z,11.21
2019-03-04T12:58:47.964Z,11.34
2019-03-04T12:59:47.950Z,11.28
2019-03-04T13:00:47.948Z,11.34
2019-03-04T13:01:47.928Z,11.45
2019-03-04T13:02:57.044Z,11.51
2019-03-04T13:03:47.664Z,11.46
2019-03-04T13:04:47.900Z,11.42
2019-03-04T13:05:47.899Z,11.48
2019-03-04T13:06:47.885Z,11.49
2019-03-04T13:07:47.870Z,11.34
2019-03-04T13:08:47.862Z,11.24
2019-03-04T13:09:47.851Z,11.26